Thursday, October 23, 2014
19:21 UTC
  |  Log In   |  Register Free
Airport Search:

Gainesville Municipal Airport
(KGLE)

FAA data valid effective September 18, 2014 - November 13, 2014 (unless otherwise noted).

 
 
 
 
 
 
 
 
 
 
 
 
 
 

Current Aviation Weather for Gainesville Municipal Airport (KGLE)

The most recent METAR observation for KGLE was updated at: 1914
METAR Summary (Translated METAR)
KGLE
231855Z AUTO 18006KT 10SM BKN050 24/14 A3012 RMK AO2 T02440141
KGYI
231855Z AUTO 15005KT 10SM CLR 23/16 A3013 RMK AO2 T02310161
(26.4 nm NE from KGLE)
KDTO
231853Z 14008KT 10SM FEW075 25/14 A3010 RMK AO2 SLP186 T02500139
(27 nm SW from KGLE)
TAF
No TAF information found within 50 nm of KGLE
  Airport Weather Conditions for KGLE

 Current Weather at GLE
76° F
Mostly Cloudy
South winds at 6.9 mph
GLE NOAA Radar

Pressure: 30.12 in
Humidity: 53%
Wind: South at 6.9 MPH (6 KT)
Dew Point: 57.4°F
Visibility: 10.00 mi


Airport Weather Forecast for KGLE

Translated METAR and TAF for KGLE
Translated METAR for KGLE (1916 UTC 23 October 2014)
found at http://aviationweather.gov/adds/metars/
 
METAR text: KGLE 231855Z AUTO 18006KT 10SM BKN050 24/14 A3012 RMK AO2 T02440141
Conditions at: KGLE (GAINESVILLE , TX, US) observed 1855 UTC 23 October 2014
Temperature: 24.4°C (76°F)
Dewpoint: 14.1°C (57°F) [RH = 53%]
Pressure (altimeter): 30.12 inches Hg (1020.1 mb)
Winds: from the S (180 degrees) at 7 MPH (6 knots; 3.1 m/s)
Visibility: 10 or more miles (16+ km)
Ceiling: 5000 feet AGL
Clouds: broken clouds at 5000 feet AGL
Weather: automated observation with no human augmentation;
there may or may not be significant weather present at this time
Translated TAF for KGLE

There is no translated TAF available for this airport

Find All Airport Services Find A Hotel Find A Rental Car Find A Golf Course Find A Restaurant $100 Hamburger



FBO's on the Field
FBO Company Facility Photos Services Transportation Aviation Fuel Prices: Prices include tax
Catering Weather Repair Courtesy Rental Type 100LL JetA JetA+ MOGAS 8087
 
City of Gainesville Municipal Airport

This FBO has not yet been rated
FS: Phillips 66
Last Updated: Oct-07
Login to update fuel prices
SS:
Contact City of Gainesville Municipal AirportMore FBO Information
 
Add another FBO Facility Photos Catering Weather Repair Courtesy Rental Type 100LL JetA JetA+ MOGAS 8087
Services Transportation Aviation Fuel Prices: Prices include tax


model-print
model-print
model-print
model-print